Kure Beach, NC

9:51 PM EDT on September 27, 2016 (GMT -0400)
Darlings By The Sea | | Change Station

Elev 16 ft 34.00 °N, 77.90 °W | Updated 11 seconds ago

Clear
Clear
78.5 °F
Feels Like 81 °F
N
5.0
Wind Variable Wind from ENE
Gusts 9.0 mph

Today
High -- | Low -- °F
--% Chance of Precip.
Yesterday
High -- | Low -- °F
Precip. -- in
Pressure 29.91 in
Visibility 10.0 miles
Clouds Clear
Heat Index 81 °F
Dew Point 70 °F
Humidity 76%
Rainfall 0.00 in
Snow Depth Not available.
7:03 AM 7:00 PM
Waning Crescent, 8% visible
METAR KSUT 280145Z AUTO 00000KT 10SM CLR 23/20 A2991 RMK AO2 T02250204
Pressure 29.91 in
Visibility 10.0 miles
Clouds Clear
Heat Index 81 °F
Dew Point 70 °F
Humidity 76%
Rainfall 0.00 in
Snow Depth Not available.
7:03 AM 7:00 PM
Waning Crescent, 8% visible
METAR KSUT 280145Z AUTO 00000KT 10SM CLR 23/20 A2991 RMK AO2 T02250204

10-Day Weather Forecast

Almanac

Astronomy

Sep. 27, 2016 Rise Set
Actual Time
Civil Twilight
Nautical Twilight
Astronomical Twilight
Moon
Length of Visible Light
Length of Day
Tomorrow will be .
, % of the Moon is Illuminated

Today's Extremes

State Highs State Lows

Community

WunderPhotos

Upload Photos

1,942,178 photos uploaded!

WunderBlog® & News

Nearby

Air Quality

  Air Quality AQ Index Pollutant
Not available.

Snow Depth

Station Depth Elevation

Earthquake Activity

City Distance Mag. Time & Date
Minimum magnitude displayed is 2.5.

Coastal Water Temperatures

Place Temperature

Stations

Nearby Weather Stations

Station Location Temp. Windchill Dew Point Humidity Wind Precip. Elev Updated Type
                   

Watches & Warnings

There are currently no watches in effect.